Metar Flugplatz Niederstetten

ETHN 072120Z 15006KT 9999 SCT040 BKN140 BKN220 12/11 Q1020 BLU



Temperatur Niederstetten
12 Grad Celsius

QNH Niederstetten
1020
==============================================================

TAF Niederstetten:

TAF ETHN 291027Z 2911/3002 24010KT 9999 NSW FEW240 TEMPO 2911/2916 26012G22KT 9999 NSW SCT035 BKN240



Alle Angaben ohne Gewähr